createdAt,value
2022-09-25T00:01:43.633Z,13.45
2022-09-25T00:04:12.132Z,13.40
2022-09-25T00:06:41.458Z,13.48
2022-09-25T00:09:10.307Z,13.52
2022-09-25T00:11:38.551Z,13.62
2022-09-25T00:14:06.274Z,13.57
2022-09-25T00:16:34.065Z,13.59
2022-09-25T00:19:20.813Z,13.63
2022-09-25T00:21:52.758Z,13.56
2022-09-25T00:24:20.632Z,13.48
2022-09-25T00:26:48.175Z,13.47
2022-09-25T00:29:17.578Z,13.48
2022-09-25T00:31:45.118Z,13.47
2022-09-25T00:34:14.301Z,13.45
2022-09-25T00:36:42.090Z,13.49
2022-09-25T00:39:09.631Z,13.47
2022-09-25T00:41:37.215Z,13.60
2022-09-25T00:44:05.585Z,13.49
2022-09-25T00:46:37.821Z,13.59
2022-09-25T00:49:11.612Z,13.58
2022-09-25T00:51:44.733Z,13.70
2022-09-25T00:54:17.242Z,13.59
2022-09-25T00:56:48.428Z,13.72
2022-09-25T00:59:19.737Z,13.74
2022-09-25T01:01:47.927Z,13.66
2022-09-25T01:04:18.279Z,13.88
2022-09-25T01:06:47.430Z,13.67
2022-09-25T01:09:15.144Z,13.71
2022-09-25T01:11:42.689Z,13.58
2022-09-25T01:14:11.181Z,13.63
2022-09-25T01:16:46.218Z,13.62
2022-09-25T01:19:27.989Z,13.52
2022-09-25T01:22:06.141Z,13.47
2022-09-25T01:24:45.349Z,13.49
2022-09-25T01:27:37.437Z,13.35
2022-09-25T01:30:09.743Z,13.43
2022-09-25T01:32:52.549Z,13.42
2022-09-25T01:35:32.237Z,13.48
2022-09-25T01:38:06.145Z,13.29
2022-09-25T01:40:38.832Z,13.30
2022-09-25T01:43:14.792Z,13.50
2022-09-25T01:45:47.573Z,13.34
2022-09-25T01:48:18.923Z,13.37
2022-09-25T01:50:50.807Z,13.24
2022-09-25T01:53:22.790Z,13.37
2022-09-25T01:55:56.933Z,13.30
2022-09-25T01:58:29.726Z,13.44
2022-09-25T02:01:04.967Z,13.55
2022-09-25T02:03:40.206Z,13.61
2022-09-25T02:06:11.107Z,13.39
2022-09-25T02:08:44.009Z,13.45
2022-09-25T02:11:14.219Z,13.76
2022-09-25T02:13:47.748Z,13.50
2022-09-25T02:16:20.594Z,13.53
2022-09-25T02:19:07.038Z,13.84
2022-09-25T02:21:45.522Z,13.86
2022-09-25T02:24:20.635Z,13.94
2022-09-25T02:26:49.151Z,13.76
2022-09-25T02:29:18.531Z,13.60
2022-09-25T02:31:50.863Z,13.90
2022-09-25T02:34:18.729Z,13.80
2022-09-25T02:36:46.438Z,13.69
2022-09-25T02:39:17.013Z,13.63
2022-09-25T02:42:04.182Z,13.54
2022-09-25T02:44:44.337Z,13.73
2022-09-25T02:47:24.707Z,13.38
2022-09-25T02:50:00.069Z,13.45
2022-09-25T02:52:34.599Z,13.45
2022-09-25T02:55:08.450Z,13.57
2022-09-25T02:57:43.608Z,13.76
2022-09-25T03:00:13.203Z,13.90
2022-09-25T03:02:49.674Z,13.83
2022-09-25T03:05:20.563Z,13.82
2022-09-25T03:08:05.857Z,13.70
2022-09-25T03:10:36.506Z,13.64
2022-09-25T03:13:18.086Z,13.84
2022-09-25T03:15:47.757Z,13.62
2022-09-25T03:18:17.065Z,13.52
2022-09-25T03:20:45.023Z,13.45
2022-09-25T03:23:12.625Z,13.37
2022-09-25T03:25:40.308Z,13.52
2022-09-25T03:28:11.549Z,13.61
2022-09-25T03:30:40.956Z,13.50
2022-09-25T03:33:10.334Z,13.67
2022-09-25T03:35:39.850Z,13.65
2022-09-25T03:38:10.434Z,13.54
2022-09-25T03:40:38.071Z,13.49
2022-09-25T03:45:32.212Z,13.31
2022-09-25T03:47:59.752Z,13.36
2022-09-25T03:50:27.649Z,13.18
2022-09-25T03:52:57.059Z,13.17
2022-09-25T03:55:26.033Z,13.41
2022-09-25T03:57:54.305Z,13.25
2022-09-25T04:00:21.824Z,13.32
2022-09-25T04:02:50.316Z,13.33
2022-09-25T04:05:20.076Z,13.31
2022-09-25T04:07:48.286Z,13.42
2022-09-25T04:10:17.384Z,13.60
2022-09-25T04:12:45.003Z,13.51
2022-09-25T04:15:12.627Z,13.59
2022-09-25T04:17:40.198Z,13.86
2022-09-25T04:20:09.456Z,13.78
2022-09-25T04:22:37.008Z,13.91
2022-09-25T04:25:05.239Z,13.97
2022-09-25T04:27:34.402Z,14.04
2022-09-25T04:30:02.442Z,13.89
2022-09-25T04:32:47.406Z,13.82
2022-09-25T04:35:15.170Z,13.79
2022-09-25T04:37:42.845Z,13.70
2022-09-25T04:40:11.544Z,13.61
2022-09-25T04:42:43.084Z,13.55
2022-09-25T04:45:11.403Z,13.60
2022-09-25T04:47:38.990Z,13.56
2022-09-25T04:50:07.589Z,13.42
2022-09-25T04:52:35.122Z,13.42
2022-09-25T04:55:04.204Z,13.37
2022-09-25T04:57:56.772Z,13.51
2022-09-25T05:00:21.661Z,13.62
2022-09-25T05:02:50.049Z,13.80
2022-09-25T05:05:18.476Z,13.90
2022-09-25T05:07:54.158Z,13.70
2022-09-25T05:10:22.218Z,13.56
2022-09-25T05:12:55.134Z,13.35
2022-09-25T05:15:24.167Z,13.44
2022-09-25T05:17:53.412Z,13.52
2022-09-25T05:20:21.062Z,13.43
2022-09-25T05:22:48.605Z,13.52
2022-09-25T05:25:16.504Z,13.31
2022-09-25T05:27:44.611Z,13.32
2022-09-25T05:30:12.913Z,13.66
2022-09-25T05:32:49.337Z,13.58
2022-09-25T05:35:18.452Z,13.52
2022-09-25T05:37:46.018Z,13.39
2022-09-25T05:40:15.492Z,13.68
2022-09-25T05:42:44.101Z,13.75
2022-09-25T05:45:12.929Z,13.63
2022-09-25T05:47:43.376Z,13.52
2022-09-25T05:50:13.676Z,13.62
2022-09-25T05:52:41.993Z,13.63
2022-09-25T05:55:11.016Z,13.42
2022-09-25T05:57:39.214Z,13.41
2022-09-25T06:00:09.886Z,13.45
2022-09-25T06:02:37.493Z,13.41
2022-09-25T06:05:07.118Z,13.56
2022-09-25T06:07:34.647Z,13.54
2022-09-25T06:10:02.275Z,13.34
2022-09-25T06:12:30.187Z,13.46
2022-09-25T06:14:58.123Z,13.58
2022-09-25T06:17:25.655Z,13.63
2022-09-25T06:19:53.378Z,13.59
2022-09-25T06:22:22.285Z,13.59
2022-09-25T06:24:49.847Z,13.69
2022-09-25T06:27:17.479Z,13.77
2022-09-25T06:29:45.018Z,13.64
2022-09-25T06:32:12.609Z,13.76
2022-09-25T06:34:40.166Z,13.69
2022-09-25T06:37:07.749Z,13.63
2022-09-25T06:39:36.614Z,13.73
2022-09-25T06:42:04.589Z,13.81
2022-09-25T06:44:32.118Z,13.77
2022-09-25T06:46:59.720Z,13.92
2022-09-25T06:49:27.351Z,13.76
2022-09-25T06:51:54.947Z,13.72
2022-09-25T06:54:22.498Z,13.70
2022-09-25T06:56:51.516Z,13.79
2022-09-25T06:59:19.179Z,13.59
2022-09-25T07:01:46.899Z,13.49
2022-09-25T07:04:13.839Z,13.52
2022-09-25T07:06:41.434Z,13.53
2022-09-25T07:09:09.537Z,13.85
2022-09-25T07:11:37.077Z,13.63
2022-09-25T07:14:05.971Z,13.88
2022-09-25T07:16:34.385Z,13.60
2022-09-25T07:19:03.993Z,13.71
2022-09-25T07:21:32.184Z,13.81
2022-09-25T07:24:00.047Z,13.80
2022-09-25T07:26:29.591Z,13.78
2022-09-25T07:29:00.431Z,13.64
2022-09-25T07:31:31.093Z,13.62
2022-09-25T07:34:00.178Z,13.67
2022-09-25T07:36:28.548Z,13.66
2022-09-25T07:38:56.148Z,13.54
2022-09-25T07:41:24.181Z,13.66
2022-09-25T07:44:06.311Z,13.60
2022-09-25T07:46:44.407Z,13.83
2022-09-25T07:49:12.290Z,13.86
2022-09-25T07:51:39.987Z,13.81
2022-09-25T07:54:08.312Z,13.83
2022-09-25T07:56:37.999Z,13.80
2022-09-25T07:59:05.744Z,13.80
2022-09-25T08:01:33.341Z,13.97
2022-09-25T08:04:02.867Z,13.92
2022-09-25T08:06:31.146Z,13.92
2022-09-25T08:08:59.616Z,13.98
2022-09-25T08:11:27.980Z,14.13
2022-09-25T08:13:55.579Z,14.15
2022-09-25T08:16:23.337Z,14.25
2022-09-25T08:18:51.523Z,14.12
2022-09-25T08:21:21.448Z,14.11
2022-09-25T08:23:50.980Z,14.18
2022-09-25T08:26:19.354Z,14.33
2022-09-25T08:28:46.942Z,14.31
2022-09-25T08:31:15.505Z,14.36
2022-09-25T08:33:45.451Z,14.37
2022-09-25T08:36:13.193Z,14.47
2022-09-25T08:38:42.121Z,14.34
2022-09-25T08:41:14.692Z,14.40
2022-09-25T08:43:47.479Z,14.54
2022-09-25T08:46:39.706Z,14.58
2022-09-25T08:49:11.278Z,14.43
2022-09-25T08:51:44.118Z,14.60
2022-09-25T08:54:19.589Z,14.47
2022-09-25T08:56:50.574Z,14.46
2022-09-25T08:59:26.825Z,14.72
2022-09-25T09:01:58.643Z,14.67
2022-09-25T09:04:31.924Z,14.82
2022-09-25T09:07:25.822Z,15.17
2022-09-25T09:09:59.303Z,15.32
2022-09-25T09:12:34.337Z,15.14
2022-09-25T09:15:16.109Z,15.50
2022-09-25T09:17:44.220Z,15.33
2022-09-25T09:20:18.502Z,15.31
2022-09-25T09:22:50.691Z,15.40
2022-09-25T09:25:29.091Z,15.49
2022-09-25T09:28:14.590Z,15.05
2022-09-25T09:30:51.084Z,15.27
2022-09-25T09:33:31.150Z,15.33
2022-09-25T09:36:09.277Z,15.78
2022-09-25T09:38:44.182Z,15.42
2022-09-25T09:41:21.687Z,15.38
2022-09-25T09:44:14.768Z,15.35
2022-09-25T09:46:50.976Z,15.35
2022-09-25T09:49:27.055Z,15.24
2022-09-25T09:51:59.181Z,15.28
2022-09-25T09:54:35.855Z,14.76
2022-09-25T09:57:13.955Z,14.77
2022-09-25T09:59:46.809Z,15.11
2022-09-25T10:02:26.423Z,15.26
2022-09-25T10:04:56.604Z,15.06
2022-09-25T10:07:27.709Z,14.94
2022-09-25T10:09:55.663Z,14.80
2022-09-25T10:12:30.036Z,15.13
2022-09-25T10:15:00.702Z,15.08
2022-09-25T10:17:30.603Z,14.96
2022-09-25T10:20:01.984Z,15.00
2022-09-25T10:22:35.217Z,14.97
2022-09-25T10:25:03.043Z,15.04
2022-09-25T10:27:35.756Z,15.22
2022-09-25T10:30:18.577Z,15.24
2022-09-25T10:32:57.087Z,15.18
2022-09-25T10:35:28.565Z,15.65
2022-09-25T10:37:58.563Z,15.53
2022-09-25T10:40:31.668Z,15.87
2022-09-25T10:43:23.489Z,15.96
2022-09-25T10:45:54.136Z,16.07
2022-09-25T10:48:48.399Z,16.12
2022-09-25T10:51:18.251Z,15.69
2022-09-25T10:53:47.168Z,15.66
2022-09-25T10:56:20.391Z,15.67
2022-09-25T10:58:54.883Z,15.31
2022-09-25T11:01:30.411Z,15.54
2022-09-25T11:03:59.712Z,15.71
2022-09-25T11:06:29.247Z,15.94
2022-09-25T11:09:11.361Z,16.02
2022-09-25T11:11:40.882Z,16.03
2022-09-25T11:14:22.323Z,16.00
2022-09-25T11:16:53.105Z,16.23
2022-09-25T11:19:28.854Z,16.37
2022-09-25T11:22:08.072Z,16.46
2022-09-25T11:24:55.899Z,16.64
2022-09-25T11:27:33.967Z,16.70
2022-09-25T11:30:07.209Z,16.56
2022-09-25T11:32:50.245Z,16.62
2022-09-25T11:35:34.573Z,16.91
2022-09-25T11:38:09.796Z,17.00
2022-09-25T11:41:08.960Z,17.23
2022-09-25T11:43:46.877Z,17.30
2022-09-25T11:46:23.352Z,17.03
2022-09-25T11:49:01.785Z,17.21
2022-09-25T11:51:58.156Z,17.37
2022-09-25T11:54:36.459Z,17.45
2022-09-25T11:57:10.482Z,17.82
2022-09-25T11:59:49.270Z,17.80
2022-09-25T12:02:26.043Z,17.60
2022-09-25T12:05:19.371Z,17.96
2022-09-25T12:08:09.173Z,17.76
2022-09-25T12:10:47.840Z,17.44
2022-09-25T12:13:23.345Z,17.00
2022-09-25T12:16:02.935Z,16.96
2022-09-25T12:18:50.425Z,16.94
2022-09-25T12:21:24.619Z,16.79
2022-09-25T12:23:59.507Z,16.77
2022-09-25T12:26:35.254Z,16.83
2022-09-25T12:29:14.331Z,16.96
2022-09-25T12:31:53.553Z,16.41
2022-09-25T12:34:38.273Z,16.86
2022-09-25T12:37:23.051Z,16.64
2022-09-25T12:39:58.107Z,16.24
2022-09-25T12:42:36.446Z,16.20
2022-09-25T12:45:16.208Z,16.00
2022-09-25T12:47:48.553Z,16.10
2022-09-25T12:50:21.877Z,16.14
2022-09-25T12:52:53.741Z,15.98
2022-09-25T12:55:27.151Z,15.92
2022-09-25T12:58:10.268Z,15.83
2022-09-25T13:00:42.774Z,15.50
2022-09-25T13:03:17.550Z,15.59
2022-09-25T13:05:52.952Z,15.60
2022-09-25T13:08:24.434Z,15.72
2022-09-25T13:10:57.469Z,15.88
2022-09-25T13:13:30.623Z,15.83
2022-09-25T13:15:59.843Z,16.00
2022-09-25T13:18:29.304Z,16.36
2022-09-25T13:21:01.479Z,16.92
2022-09-25T13:23:33.492Z,17.02
2022-09-25T13:26:09.728Z,17.02
2022-09-25T13:28:40.356Z,16.97
2022-09-25T13:31:12.119Z,16.84
2022-09-25T13:33:47.283Z,16.68
2022-09-25T13:36:30.431Z,16.63
2022-09-25T13:39:17.709Z,16.61
2022-09-25T13:41:53.343Z,16.27
2022-09-25T13:45:07.733Z,15.88
2022-09-25T13:48:05.997Z,15.52
2022-09-25T13:50:45.219Z,15.32
2022-09-25T13:53:21.279Z,15.03
2022-09-25T13:56:23.535Z,14.87
2022-09-25T13:59:22.132Z,14.58
2022-09-25T14:01:59.732Z,14.56
2022-09-25T14:04:37.793Z,14.48
2022-09-25T14:07:25.555Z,14.28
2022-09-25T14:09:57.514Z,14.22
2022-09-25T14:12:29.983Z,13.99
2022-09-25T14:15:01.109Z,14.16
2022-09-25T14:17:32.375Z,14.10
2022-09-25T14:20:01.900Z,14.20
2022-09-25T14:22:39.207Z,14.40
2022-09-25T14:25:28.352Z,14.36
2022-09-25T14:27:56.138Z,14.44
2022-09-25T14:30:28.873Z,14.61
2022-09-25T14:33:11.158Z,14.43
2022-09-25T14:35:45.291Z,14.32
2022-09-25T14:38:36.959Z,14.62
2022-09-25T14:41:23.695Z,14.63
2022-09-25T14:44:18.279Z,14.38
2022-09-25T14:46:50.435Z,14.64
2022-09-25T14:49:25.034Z,14.56
2022-09-25T14:51:55.947Z,14.49
2022-09-25T14:54:26.972Z,14.53
2022-09-25T14:56:58.957Z,14.57
2022-09-25T14:59:33.202Z,14.54
2022-09-25T15:02:03.362Z,14.64
2022-09-25T15:04:33.230Z,14.70
2022-09-25T15:07:03.540Z,14.89
2022-09-25T15:09:36.937Z,14.96
2022-09-25T15:12:18.589Z,14.87
2022-09-25T15:15:04.365Z,14.80
2022-09-25T15:17:33.437Z,14.95
2022-09-25T15:20:03.583Z,14.90
2022-09-25T15:22:35.281Z,15.03
2022-09-25T15:25:05.384Z,15.04
2022-09-25T15:27:37.447Z,15.26
2022-09-25T15:30:06.547Z,15.09
2022-09-25T15:32:39.340Z,15.12
2022-09-25T15:35:15.522Z,15.05
2022-09-25T15:37:43.219Z,14.89
2022-09-25T15:40:19.985Z,15.07
2022-09-25T15:42:50.596Z,15.00
2022-09-25T15:45:44.823Z,15.03
2022-09-25T15:48:22.143Z,14.92
2022-09-25T15:50:51.050Z,14.72
2022-09-25T15:53:23.430Z,14.85
2022-09-25T15:55:51.873Z,14.82
2022-09-25T15:58:21.895Z,14.81
2022-09-25T16:01:16.500Z,14.71
2022-09-25T16:04:07.787Z,14.82
2022-09-25T16:06:40.301Z,14.92
2022-09-25T16:09:21.455Z,14.87
2022-09-25T16:11:50.042Z,14.84
2022-09-25T16:14:23.068Z,14.64
2022-09-25T16:16:51.910Z,14.48
2022-09-25T16:19:30.611Z,14.54
2022-09-25T16:22:00.110Z,14.48
2022-09-25T16:24:29.750Z,14.48
2022-09-25T16:26:59.598Z,14.41
2022-09-25T16:29:30.747Z,14.35
2022-09-25T16:32:03.759Z,14.40
2022-09-25T16:34:35.090Z,14.34
2022-09-25T16:37:04.686Z,14.29
2022-09-25T16:39:34.786Z,14.21
2022-09-25T16:42:27.650Z,14.22
2022-09-25T16:45:04.033Z,14.12
2022-09-25T16:47:32.174Z,14.09
2022-09-25T16:49:59.718Z,14.22
2022-09-25T16:52:32.385Z,13.96
2022-09-25T16:55:01.034Z,13.92
2022-09-25T16:57:29.232Z,13.87
2022-09-25T16:59:56.893Z,13.85
2022-09-25T17:02:33.121Z,13.88
2022-09-25T17:05:04.095Z,13.87
2022-09-25T17:07:31.736Z,13.70
2022-09-25T17:10:00.892Z,13.54
2022-09-25T17:12:31.119Z,13.47
2022-09-25T17:14:59.392Z,13.67
2022-09-25T17:17:29.633Z,13.44
2022-09-25T17:19:57.270Z,13.36
2022-09-25T17:22:29.438Z,13.34
2022-09-25T17:25:01.953Z,13.20
2022-09-25T17:27:29.502Z,13.29
2022-09-25T17:29:57.139Z,13.22
2022-09-25T17:32:24.699Z,13.18
2022-09-25T17:34:54.146Z,13.17
2022-09-25T17:37:21.683Z,13.21
2022-09-25T17:39:49.278Z,13.16
2022-09-25T17:42:17.182Z,13.07
2022-09-25T17:44:47.409Z,13.07
2022-09-25T17:47:16.304Z,12.98
2022-09-25T17:49:43.899Z,13.06
2022-09-25T17:52:20.957Z,12.93
2022-09-25T17:54:48.739Z,12.97
2022-09-25T17:57:16.537Z,13.02
2022-09-25T17:59:44.180Z,13.00
2022-09-25T18:02:16.830Z,13.07
2022-09-25T18:04:44.934Z,12.97
2022-09-25T18:07:15.275Z,13.04
2022-09-25T18:09:43.007Z,12.95
2022-09-25T18:12:10.937Z,12.94
2022-09-25T18:14:38.792Z,12.83
2022-09-25T18:17:06.485Z,12.77
2022-09-25T18:19:51.561Z,12.95
2022-09-25T18:22:25.187Z,12.85
2022-09-25T18:24:56.386Z,12.89
2022-09-25T18:27:25.252Z,12.87
2022-09-25T18:29:53.100Z,12.74
2022-09-25T18:32:21.108Z,12.76
2022-09-25T18:34:48.823Z,12.70
2022-09-25T18:37:16.728Z,12.64
2022-09-25T18:39:47.914Z,12.61
2022-09-25T18:42:15.973Z,12.71
2022-09-25T18:44:43.731Z,12.76
2022-09-25T18:47:11.684Z,12.64
2022-09-25T18:49:39.493Z,12.56
2022-09-25T18:52:08.086Z,12.49
2022-09-25T18:54:35.866Z,12.45
2022-09-25T18:57:05.246Z,12.38
2022-09-25T18:59:32.889Z,12.34
2022-09-25T19:02:01.074Z,12.35
2022-09-25T19:04:28.957Z,12.30
2022-09-25T19:06:56.991Z,12.28
2022-09-25T19:09:27.491Z,12.28
2022-09-25T19:11:56.080Z,12.23
2022-09-25T19:14:25.511Z,12.29
2022-09-25T19:16:53.471Z,12.24
2022-09-25T19:19:21.231Z,12.23
2022-09-25T19:21:49.098Z,12.26
2022-09-25T19:24:18.324Z,12.22
2022-09-25T19:26:46.280Z,12.24
2022-09-25T19:29:14.066Z,12.14
2022-09-25T19:31:43.291Z,12.08
2022-09-25T19:34:11.385Z,12.05
2022-09-25T19:36:39.268Z,12.06
2022-09-25T19:39:07.097Z,12.05
2022-09-25T19:41:37.963Z,12.05
2022-09-25T19:44:13.183Z,12.03
2022-09-25T19:46:43.013Z,12.07
2022-09-25T19:49:11.057Z,12.06
2022-09-25T19:51:38.828Z,12.07
2022-09-25T19:54:07.461Z,12.12
2022-09-25T19:56:37.262Z,12.10
2022-09-25T19:59:05.444Z,12.07
2022-09-25T20:01:33.077Z,12.04
2022-09-25T20:04:06.602Z,12.02
2022-09-25T20:06:36.915Z,12.00
2022-09-25T20:09:05.947Z,12.02
2022-09-25T20:11:35.150Z,11.99
2022-09-25T20:14:04.255Z,11.99
2022-09-25T20:16:32.418Z,11.92
2022-09-25T20:19:03.885Z,11.93
2022-09-25T20:21:34.537Z,11.91
2022-09-25T20:24:04.180Z,11.92
2022-09-25T20:26:32.918Z,11.93
2022-09-25T20:29:02.087Z,11.94
2022-09-25T20:31:32.265Z,11.91
2022-09-25T20:34:00.013Z,11.92
2022-09-25T20:36:29.141Z,11.90
2022-09-25T20:38:57.971Z,11.84
2022-09-25T20:41:27.009Z,11.85
2022-09-25T20:43:56.311Z,11.86
2022-09-25T20:46:24.926Z,11.86
2022-09-25T20:48:53.852Z,11.86
2022-09-25T20:51:24.081Z,11.83
2022-09-25T20:53:54.682Z,11.84
2022-09-25T20:56:22.930Z,11.79
2022-09-25T20:58:53.466Z,11.74
2022-09-25T21:01:23.714Z,11.75
2022-09-25T21:03:52.443Z,11.76
2022-09-25T21:06:21.754Z,11.76
2022-09-25T21:08:54.161Z,11.71
2022-09-25T21:11:22.176Z,11.68
2022-09-25T21:13:52.263Z,11.64
2022-09-25T21:16:21.671Z,11.62
2022-09-25T21:18:53.224Z,11.58
2022-09-25T21:21:20.853Z,11.62
2022-09-25T21:23:49.995Z,11.57
2022-09-25T21:26:19.521Z,11.62
2022-09-25T21:28:48.259Z,11.60
2022-09-25T21:31:17.724Z,11.55
2022-09-25T21:33:45.533Z,11.58
2022-09-25T21:36:14.761Z,11.55
2022-09-25T21:38:42.709Z,11.54
2022-09-25T21:41:19.847Z,11.53
2022-09-25T21:43:48.452Z,11.55
2022-09-25T21:46:18.241Z,11.51
2022-09-25T21:48:49.693Z,11.53
2022-09-25T21:51:18.451Z,11.51
2022-09-25T21:53:46.465Z,11.49
2022-09-25T21:56:18.289Z,11.50
2022-09-25T21:58:47.794Z,11.50
2022-09-25T22:01:18.327Z,11.46
2022-09-25T22:03:49.810Z,11.42
2022-09-25T22:06:20.025Z,11.43
2022-09-25T22:08:49.762Z,11.37
2022-09-25T22:11:18.985Z,11.37
2022-09-25T22:13:49.277Z,11.32
2022-09-25T22:16:18.982Z,11.30
2022-09-25T22:18:48.501Z,11.24
2022-09-25T22:21:18.970Z,11.24
2022-09-25T22:23:47.358Z,11.21
2022-09-25T22:26:16.654Z,11.21
2022-09-25T22:28:44.410Z,11.12
2022-09-25T22:31:16.643Z,11.12
2022-09-25T22:33:44.747Z,11.11
2022-09-25T22:36:13.164Z,11.04
2022-09-25T22:38:41.338Z,11.01
2022-09-25T22:41:12.007Z,10.97
2022-09-25T22:43:40.643Z,11.07
2022-09-25T22:46:10.238Z,11.09
2022-09-25T22:48:39.618Z,11.04
2022-09-25T22:51:09.214Z,10.99
2022-09-25T22:53:37.263Z,10.98
2022-09-25T22:56:12.526Z,10.90
2022-09-25T22:58:40.454Z,10.82
2022-09-25T23:01:11.882Z,10.78
2022-09-25T23:03:40.981Z,10.71
2022-09-25T23:06:09.334Z,10.74
2022-09-25T23:08:37.352Z,10.71
2022-09-25T23:11:08.097Z,10.77
2022-09-25T23:13:37.221Z,10.77
2022-09-25T23:16:07.301Z,10.79
2022-09-25T23:18:35.372Z,10.73
2022-09-25T23:21:05.078Z,10.70
2022-09-25T23:23:33.406Z,10.69
2022-09-25T23:26:06.186Z,10.74
2022-09-25T23:28:34.940Z,10.74
2022-09-25T23:31:07.744Z,10.63
2022-09-25T23:33:35.412Z,10.65
2022-09-25T23:36:06.594Z,10.61
2022-09-25T23:38:34.850Z,10.57
2022-09-25T23:41:02.690Z,10.54
2022-09-25T23:43:30.351Z,10.50
2022-09-25T23:45:57.995Z,10.49
2022-09-25T23:48:25.619Z,10.48
2022-09-25T23:50:53.141Z,10.42
2022-09-25T23:53:22.071Z,10.49
2022-09-25T23:55:50.970Z,10.54
2022-09-25T23:58:19.021Z,10.52
